Time,TemperatureF,DewpointF,PressureIn,WindDirection,WindDirectionDegrees,WindSpeedMPH,WindSpeedGustMPH,Humidity,HourlyPrecipIn,Conditions,Clouds,dailyrainin,SolarRadiationWatts/m^2,SoftwareType,DateUTC
2013-01-31 07:03:00,15.0,11.0,-100.00,ESE,110,6.0,7.0,85,0.00,,,0.19,0.000000,,2013-01-31 14:03:00,
2013-01-31 07:11:00,15.0,11.0,-100.00,ESE,110,6.0,7.0,85,0.00,,,0.19,0.000000,,2013-01-31 14:11:00,
2013-01-31 07:22:00,15.0,11.0,-100.00,ESE,110,6.0,7.0,85,0.00,,,0.19,0.000000,,2013-01-31 14:22:00,
2013-01-31 07:32:00,15.0,11.0,-100.00,ESE,110,6.0,7.0,85,0.00,,,0.19,0.000000,,2013-01-31 14:32:00,
2013-01-31 07:52:00,15.0,11.0,-100.00,ESE,119,7.0,8.0,82,0.00,,,0.19,5.000000,,2013-01-31 14:52:00,
2013-01-31 08:03:00,15.0,11.0,-100.00,ESE,119,7.0,8.0,82,0.00,,,0.19,5.000000,,2013-01-31 15:03:00,
2013-01-31 08:12:00,15.0,11.0,-100.00,ESE,119,7.0,8.0,82,0.00,,,0.19,5.000000,,2013-01-31 15:12:00,
2013-01-31 08:22:00,15.0,11.0,-100.00,ESE,119,7.0,8.0,82,0.00,,,0.19,5.000000,,2013-01-31 15:22:00,
2013-01-31 08:32:00,15.0,11.0,-100.00,ESE,119,7.0,8.0,82,0.00,,,0.19,5.000000,,2013-01-31 15:32:00,
2013-01-31 08:52:00,26.0,18.0,-100.00,SE,124,4.0,9.0,72,-99.99,,,0.19,120.000000,,2013-01-31 15:52:00,
2013-01-31 09:03:00,26.0,18.0,-100.00,SE,124,4.0,9.0,72,-99.99,,,0.19,120.000000,,2013-01-31 16:03:00,
2013-01-31 09:12:00,26.0,18.0,-100.00,SE,124,4.0,9.0,72,-99.99,,,0.19,120.000000,,2013-01-31 16:12:00,
2013-01-31 09:22:00,26.0,18.0,-100.00,SE,124,4.0,9.0,72,-99.99,,,0.19,120.000000,,2013-01-31 16:22:00,
2013-01-31 09:33:00,26.0,18.0,-100.00,SE,124,4.0,9.0,72,-99.99,,,0.19,120.000000,,2013-01-31 16:33:00,
2013-01-31 09:52:00,33.0,19.0,-100.00,North,2,2.0,4.0,56,0.00,,,0.19,316.000000,,2013-01-31 16:52:00,
2013-01-31 10:02:00,33.0,19.0,-100.00,North,2,2.0,4.0,56,0.00,,,0.19,316.000000,,2013-01-31 17:02:00,
2013-01-31 10:12:00,33.0,19.0,-100.00,North,2,2.0,4.0,56,0.00,,,0.19,316.000000,,2013-01-31 17:12:00,
2013-01-31 10:23:00,33.0,19.0,-100.00,North,2,2.0,4.0,56,0.00,,,0.19,316.000000,,2013-01-31 17:23:00,
2013-01-31 10:32:00,33.0,19.0,-100.00,North,2,2.0,4.0,56,0.00,,,0.19,316.000000,,2013-01-31 17:32:00,
2013-01-31 10:53:00,35.0,20.0,-100.00,NNE,15,4.0,6.0,54,0.02,,,0.20,467.000000,,2013-01-31 17:53:00,
2013-01-31 11:03:00,35.0,20.0,-100.00,NNE,15,4.0,6.0,54,0.02,,,0.20,467.000000,,2013-01-31 18:03:00,
2013-01-31 11:12:00,35.0,20.0,-100.00,NNE,15,4.0,6.0,54,0.02,,,0.20,467.000000,,2013-01-31 18:12:00,
2013-01-31 11:22:00,35.0,20.0,-100.00,NNE,15,4.0,6.0,54,0.02,,,0.20,467.000000,,2013-01-31 18:22:00,
2013-01-31 11:32:00,35.0,20.0,-100.00,NNE,15,4.0,6.0,54,0.02,,,0.20,467.000000,,2013-01-31 18:32:00,
2013-01-31 11:52:00,40.0,23.0,-100.00,NW,321,4.0,10.0,50,0.04,,,0.22,575.000000,,2013-01-31 18:52:00,
2013-01-31 12:02:00,40.0,23.0,-100.00,NW,321,4.0,10.0,50,0.04,,,0.22,575.000000,,2013-01-31 19:02:00,
2013-01-31 12:12:00,40.0,23.0,-100.00,NW,321,4.0,10.0,50,0.04,,,0.22,575.000000,,2013-01-31 19:12:00,
2013-01-31 12:22:00,40.0,23.0,-100.00,NW,321,4.0,10.0,50,0.04,,,0.22,575.000000,,2013-01-31 19:22:00,
2013-01-31 12:32:00,40.0,23.0,-100.00,NW,321,4.0,10.0,50,0.04,,,0.22,575.000000,,2013-01-31 19:32:00,
2013-01-31 12:52:00,41.0,22.0,-100.00,WNW,292,5.0,12.0,46,0.06,,,0.23,630.000000,,2013-01-31 19:52:00,
2013-01-31 13:02:00,41.0,22.0,-100.00,WNW,292,5.0,12.0,46,0.06,,,0.23,630.000000,,2013-01-31 20:02:00,
2013-01-31 13:11:00,41.0,22.0,-100.00,WNW,292,5.0,12.0,46,0.06,,,0.23,630.000000,,2013-01-31 20:11:00,
2013-01-31 13:22:00,41.0,22.0,-100.00,WNW,292,5.0,12.0,46,0.06,,,0.23,630.000000,,2013-01-31 20:22:00,
2013-01-31 13:31:00,41.0,22.0,-100.00,WNW,292,5.0,12.0,46,0.06,,,0.23,630.000000,,2013-01-31 20:31:00,
2013-01-31 13:52:00,41.0,21.0,-100.00,NNE,30,6.0,9.0,44,0.05,,,0.25,615.000000,,2013-01-31 20:52:00,
2013-01-31 14:02:00,41.0,21.0,-100.00,NNE,30,6.0,9.0,44,0.05,,,0.25,615.000000,,2013-01-31 21:02:00,
2013-01-31 14:12:00,41.0,21.0,-100.00,NNE,30,6.0,9.0,44,0.05,,,0.25,615.000000,,2013-01-31 21:12:00,
2013-01-31 14:22:00,41.0,21.0,-100.00,NNE,30,6.0,9.0,44,0.05,,,0.25,615.000000,,2013-01-31 21:22:00,
2013-01-31 14:32:00,41.0,21.0,-100.00,NNE,30,6.0,9.0,44,0.05,,,0.25,615.000000,,2013-01-31 21:32:00,
2013-01-31 14:52:00,46.0,20.0,-100.00,SSW,209,4.0,8.0,35,0.03,,,0.26,546.000000,,2013-01-31 21:52:00,
2013-01-31 15:03:00,46.0,20.0,-100.00,SSW,209,4.0,8.0,35,0.03,,,0.26,546.000000,,2013-01-31 22:03:00,
2013-01-31 15:11:00,46.0,20.0,-100.00,SSW,209,4.0,8.0,35,0.03,,,0.26,546.000000,,2013-01-31 22:11:00,
2013-01-31 15:22:00,46.0,20.0,-100.00,SSW,209,4.0,8.0,35,0.03,,,0.26,546.000000,,2013-01-31 22:22:00,
2013-01-31 15:32:00,46.0,20.0,-100.00,SSW,209,4.0,8.0,35,0.03,,,0.26,546.000000,,2013-01-31 22:32:00,
2013-01-31 15:52:00,44.0,17.0,-100.00,WNW,282,4.0,7.0,33,0.00,,,0.23,421.000000,,2013-01-31 22:52:00,
2013-01-31 16:02:00,44.0,17.0,-100.00,WNW,282,4.0,7.0,33,0.00,,,0.23,421.000000,,2013-01-31 23:02:00,
2013-01-31 16:12:00,44.0,17.0,-100.00,WNW,282,4.0,7.0,33,0.00,,,0.23,421.000000,,2013-01-31 23:12:00,
2013-01-31 16:22:00,44.0,17.0,-100.00,WNW,282,4.0,7.0,33,0.00,,,0.23,421.000000,,2013-01-31 23:22:00,
2013-01-31 16:32:00,44.0,17.0,-100.00,WNW,282,4.0,7.0,33,0.00,,,0.23,421.000000,,2013-01-31 23:32:00,
2013-01-31 16:52:00,42.0,18.0,-100.00,NNE,17,3.0,7.0,38,0.00,,,0.21,256.000000,,2013-01-31 23:52:00,
2013-01-31 17:01:00,42.0,18.0,-100.00,NNE,17,3.0,7.0,38,0.00,,,0.21,256.000000,,2013-02-01 00:01:00,
2013-01-31 17:11:00,42.0,18.0,-100.00,NNE,17,3.0,7.0,38,0.00,,,0.21,256.000000,,2013-02-01 00:11:00,
2013-01-31 17:22:00,42.0,18.0,-100.00,NNE,17,3.0,7.0,38,0.00,,,0.21,256.000000,,2013-02-01 00:22:00,
2013-01-31 17:32:00,42.0,18.0,-100.00,NNE,17,3.0,7.0,38,0.00,,,0.21,256.000000,,2013-02-01 00:32:00,
2013-01-31 17:52:00,34.0,17.0,-100.00,East,95,4.0,7.0,49,0.00,,,0.20,60.000000,,2013-02-01 00:52:00,
2013-01-31 18:01:00,34.0,17.0,-100.00,East,95,4.0,7.0,49,0.00,,,0.20,60.000000,,2013-02-01 01:01:00,
2013-01-31 18:11:00,34.0,17.0,-100.00,East,95,4.0,7.0,49,0.00,,,0.20,60.000000,,2013-02-01 01:11:00,
2013-01-31 18:21:00,34.0,17.0,-100.00,East,95,4.0,7.0,49,0.00,,,0.20,60.000000,,2013-02-01 01:21:00,
2013-01-31 18:32:00,34.0,17.0,-100.00,East,95,4.0,7.0,49,0.00,,,0.20,60.000000,,2013-02-01 01:32:00,
2013-01-31 18:52:00,28.0,20.0,-100.00,ESE,111,7.0,9.0,71,0.00,,,0.20,0.000000,,2013-02-01 01:52:00,
2013-01-31 19:02:00,28.0,20.0,-100.00,ESE,111,7.0,9.0,71,0.00,,,0.20,0.000000,,2013-02-01 02:02:00,
2013-01-31 19:11:00,28.0,20.0,-100.00,ESE,111,7.0,9.0,71,0.00,,,0.20,0.000000,,2013-02-01 02:11:00,
2013-01-31 19:21:00,28.0,20.0,-100.00,ESE,111,7.0,9.0,71,0.00,,,0.20,0.000000,,2013-02-01 02:21:00,
2013-01-31 19:31:00,28.0,20.0,-100.00,ESE,111,7.0,9.0,71,0.00,,,0.20,0.000000,,2013-02-01 02:31:00,
2013-01-31 19:52:00,27.0,19.0,-100.00,South,185,4.0,8.0,71,0.00,,,0.20,0.000000,,2013-02-01 02:52:00,
2013-01-31 20:02:00,27.0,19.0,-100.00,South,185,4.0,8.0,71,0.00,,,0.20,0.000000,,2013-02-01 03:02:00,
2013-01-31 20:12:00,27.0,19.0,-100.00,South,185,4.0,8.0,71,0.00,,,0.20,0.000000,,2013-02-01 03:12:00,
2013-01-31 20:21:00,27.0,19.0,-100.00,South,185,4.0,8.0,71,0.00,,,0.20,0.000000,,2013-02-01 03:21:00,
2013-01-31 20:32:00,27.0,19.0,-100.00,South,185,4.0,8.0,71,0.00,,,0.20,0.000000,,2013-02-01 03:32:00,
2013-01-31 20:52:00,24.0,18.0,-100.00,ENE,78,2.0,9.0,78,0.00,,,0.20,0.000000,,2013-02-01 03:52:00,
2013-01-31 21:02:00,24.0,18.0,-100.00,ENE,78,2.0,9.0,78,0.00,,,0.20,0.000000,,2013-02-01 04:02:00,
2013-01-31 21:11:00,24.0,18.0,-100.00,ENE,78,2.0,9.0,78,0.00,,,0.20,0.000000,,2013-02-01 04:11:00,
2013-01-31 21:21:00,24.0,18.0,-100.00,ENE,78,2.0,9.0,78,0.00,,,0.20,0.000000,,2013-02-01 04:21:00,
2013-01-31 21:32:00,24.0,18.0,-100.00,ENE,78,2.0,9.0,78,0.00,,,0.20,0.000000,,2013-02-01 04:32:00,
2013-01-31 21:52:00,23.0,17.0,-100.00,ESE,106,6.0,9.0,78,0.00,,,0.20,0.000000,,2013-02-01 04:52:00,
2013-01-31 22:03:00,23.0,17.0,-100.00,ESE,106,6.0,9.0,78,0.00,,,0.20,0.000000,,2013-02-01 05:03:00,
2013-01-31 22:12:00,23.0,17.0,-100.00,ESE,106,6.0,9.0,78,0.00,,,0.20,0.000000,,2013-02-01 05:12:00,
2013-01-31 22:22:00,23.0,17.0,-100.00,ESE,106,6.0,9.0,78,0.00,,,0.20,0.000000,,2013-02-01 05:22:00,
2013-01-31 22:32:00,23.0,17.0,-100.00,ESE,106,6.0,9.0,78,0.00,,,0.20,0.000000,,2013-02-01 05:32:00,
2013-01-31 22:52:00,22.0,18.0,-100.00,ESE,110,7.0,9.0,83,0.00,,,0.20,0.000000,,2013-02-01 05:52:00,
2013-01-31 23:02:00,22.0,18.0,-100.00,ESE,110,7.0,9.0,83,0.00,,,0.20,0.000000,,2013-02-01 06:02:00,
2013-01-31 23:11:00,22.0,18.0,-100.00,ESE,110,7.0,9.0,83,0.00,,,0.20,0.000000,,2013-02-01 06:11:00,
2013-01-31 23:22:00,22.0,18.0,-100.00,ESE,110,7.0,9.0,83,0.00,,,0.20,0.000000,,2013-02-01 06:22:00,
2013-01-31 23:32:00,22.0,18.0,-100.00,ESE,110,7.0,9.0,83,0.00,,,0.20,0.000000,,2013-02-01 06:32:00,
2013-01-31 23:52:00,21.0,17.0,-100.00,ESE,105,6.0,8.0,83,0.00,,,0.20,0.000000,,2013-02-01 06:52:00,